sensor_id;sensor_type;location;lat;lon;timestamp;P1;durP1;ratioP1;P2;durP2;ratioP2
57720;SDS011;43562;43.064;0.160;2022-11-15T00:01:44;7.15;;;3.28;;
57720;SDS011;43562;43.064;0.160;2022-11-15T00:04:10;6.60;;;3.60;;
57720;SDS011;43562;43.064;0.160;2022-11-15T00:06:36;8.05;;;4.13;;
57720;SDS011;43562;43.064;0.160;2022-11-15T00:09:02;8.50;;;6.25;;
57720;SDS011;43562;43.064;0.160;2022-11-15T00:11:28;7.45;;;5.82;;
57720;SDS011;43562;43.064;0.160;2022-11-15T00:13:55;6.68;;;4.07;;
57720;SDS011;43562;43.064;0.160;2022-11-15T00:16:21;6.40;;;4.20;;
57720;SDS011;43562;43.064;0.160;2022-11-15T00:18:48;12.25;;;4.95;;
57720;SDS011;43562;43.064;0.160;2022-11-15T00:21:14;9.32;;;5.28;;
57720;SDS011;43562;43.064;0.160;2022-11-15T00:23:40;9.95;;;5.28;;
57720;SDS011;43562;43.064;0.160;2022-11-15T00:26:07;10.02;;;5.45;;
57720;SDS011;43562;43.064;0.160;2022-11-15T00:28:36;18.45;;;7.72;;
57720;SDS011;43562;43.064;0.160;2022-11-15T00:31:03;12.05;;;7.07;;
57720;SDS011;43562;43.064;0.160;2022-11-15T00:33:29;7.32;;;4.13;;
57720;SDS011;43562;43.064;0.160;2022-11-15T00:36:14;11.02;;;5.55;;
57720;SDS011;43562;43.064;0.160;2022-11-15T00:38:40;19.42;;;5.55;;
57720;SDS011;43562;43.064;0.160;2022-11-15T00:41:06;10.60;;;4.75;;
57720;SDS011;43562;43.064;0.160;2022-11-15T00:43:33;9.35;;;5.30;;
57720;SDS011;43562;43.064;0.160;2022-11-15T00:45:59;7.72;;;4.65;;
57720;SDS011;43562;43.064;0.160;2022-11-15T00:48:27;7.47;;;3.97;;
57720;SDS011;43562;43.064;0.160;2022-11-15T00:50:54;9.65;;;5.43;;
57720;SDS011;43562;43.064;0.160;2022-11-15T00:53:20;8.13;;;5.72;;
57720;SDS011;43562;43.064;0.160;2022-11-15T00:55:46;7.80;;;3.85;;
57720;SDS011;43562;43.064;0.160;2022-11-15T00:58:12;8.30;;;4.75;;
57720;SDS011;43562;43.064;0.160;2022-11-15T01:00:38;6.72;;;4.10;;
57720;SDS011;43562;43.064;0.160;2022-11-15T01:03:04;14.43;;;9.10;;
57720;SDS011;43562;43.064;0.160;2022-11-15T01:05:30;7.35;;;4.43;;
57720;SDS011;43562;43.064;0.160;2022-11-15T01:07:56;7.07;;;4.60;;
57720;SDS011;43562;43.064;0.160;2022-11-15T01:10:22;7.50;;;4.63;;
57720;SDS011;43562;43.064;0.160;2022-11-15T01:12:50;12.05;;;4.82;;
57720;SDS011;43562;43.064;0.160;2022-11-15T01:15:17;8.70;;;4.78;;
57720;SDS011;43562;43.064;0.160;2022-11-15T01:17:43;11.07;;;6.07;;
57720;SDS011;43562;43.064;0.160;2022-11-15T01:20:09;9.02;;;4.80;;
57720;SDS011;43562;43.064;0.160;2022-11-15T01:22:35;5.35;;;4.18;;
57720;SDS011;43562;43.064;0.160;2022-11-15T01:25:01;8.18;;;6.43;;
57720;SDS011;43562;43.064;0.160;2022-11-15T01:27:27;5.82;;;4.38;;
57720;SDS011;43562;43.064;0.160;2022-11-15T01:29:53;7.65;;;3.78;;
57720;SDS011;43562;43.064;0.160;2022-11-15T01:32:19;4.75;;;4.20;;
57720;SDS011;43562;43.064;0.160;2022-11-15T01:34:45;4.80;;;3.85;;
57720;SDS011;43562;43.064;0.160;2022-11-15T01:37:12;5.95;;;4.10;;
57720;SDS011;43562;43.064;0.160;2022-11-15T01:39:38;4.72;;;3.72;;
57720;SDS011;43562;43.064;0.160;2022-11-15T01:42:04;5.35;;;4.25;;
57720;SDS011;43562;43.064;0.160;2022-11-15T01:46:59;8.48;;;5.35;;
57720;SDS011;43562;43.064;0.160;2022-11-15T01:49:26;5.03;;;4.25;;
57720;SDS011;43562;43.064;0.160;2022-11-15T01:51:53;18.75;;;11.73;;
57720;SDS011;43562;43.064;0.160;2022-11-15T01:54:20;6.13;;;4.80;;
57720;SDS011;43562;43.064;0.160;2022-11-15T01:56:54;6.60;;;3.70;;
57720;SDS011;43562;43.064;0.160;2022-11-15T01:59:21;5.10;;;3.28;;
57720;SDS011;43562;43.064;0.160;2022-11-15T02:01:47;5.65;;;3.80;;
57720;SDS011;43562;43.064;0.160;2022-11-15T02:04:15;5.60;;;3.88;;
57720;SDS011;43562;43.064;0.160;2022-11-15T02:06:42;4.53;;;3.80;;
57720;SDS011;43562;43.064;0.160;2022-11-15T02:09:09;6.55;;;3.70;;
57720;SDS011;43562;43.064;0.160;2022-11-15T02:11:35;7.43;;;3.05;;
57720;SDS011;43562;43.064;0.160;2022-11-15T02:14:02;3.45;;;2.80;;
57720;SDS011;43562;43.064;0.160;2022-11-15T02:29:05;3.53;;;3.20;;
57720;SDS011;43562;43.064;0.160;2022-11-15T02:34:02;4.45;;;3.42;;
57720;SDS011;43562;43.064;0.160;2022-11-15T02:36:42;5.75;;;3.97;;
57720;SDS011;43562;43.064;0.160;2022-11-15T02:39:21;4.35;;;2.10;;
57720;SDS011;43562;43.064;0.160;2022-11-15T02:41:52;2.15;;;1.77;;
57720;SDS011;43562;43.064;0.160;2022-11-15T02:46:52;1.65;;;1.55;;
57720;SDS011;43562;43.064;0.160;2022-11-15T02:49:39;1.80;;;1.70;;
57720;SDS011;43562;43.064;0.160;2022-11-15T02:52:05;2.53;;;2.42;;
57720;SDS011;43562;43.064;0.160;2022-11-15T02:54:32;1.88;;;1.88;;
57720;SDS011;43562;43.064;0.160;2022-11-15T02:57:05;3.05;;;2.85;;
57720;SDS011;43562;43.064;0.160;2022-11-15T02:59:43;2.30;;;2.20;;
57720;SDS011;43562;43.064;0.160;2022-11-15T03:07:19;3.40;;;3.08;;
57720;SDS011;43562;43.064;0.160;2022-11-15T03:09:55;2.45;;;2.35;;
57720;SDS011;43562;43.064;0.160;2022-11-15T03:17:33;2.22;;;2.00;;
57720;SDS011;43562;43.064;0.160;2022-11-15T03:20:03;1.35;;;1.35;;
57720;SDS011;43562;43.064;0.160;2022-11-15T03:22:35;1.38;;;1.38;;
57720;SDS011;43562;43.064;0.160;2022-11-15T03:25:02;1.83;;;1.73;;
57720;SDS011;43562;43.064;0.160;2022-11-15T03:27:31;1.80;;;1.80;;
57720;SDS011;43562;43.064;0.160;2022-11-15T03:30:00;1.67;;;1.67;;
57720;SDS011;43562;43.064;0.160;2022-11-15T03:32:28;1.80;;;1.80;;
57720;SDS011;43562;43.064;0.160;2022-11-15T03:37:45;2.45;;;2.35;;
57720;SDS011;43562;43.064;0.160;2022-11-15T03:40:10;1.80;;;1.10;;
57720;SDS011;43562;43.064;0.160;2022-11-15T03:42:38;1.10;;;1.10;;
57720;SDS011;43562;43.064;0.160;2022-11-15T03:47:38;0.90;;;0.90;;
57720;SDS011;43562;43.064;0.160;2022-11-15T03:50:12;0.88;;;0.88;;
57720;SDS011;43562;43.064;0.160;2022-11-15T03:52:40;0.88;;;0.88;;
57720;SDS011;43562;43.064;0.160;2022-11-15T03:55:08;1.00;;;0.90;;
57720;SDS011;43562;43.064;0.160;2022-11-15T03:57:34;1.00;;;1.00;;
57720;SDS011;43562;43.064;0.160;2022-11-15T04:00:00;1.05;;;1.05;;
57720;SDS011;43562;43.064;0.160;2022-11-15T04:02:27;1.10;;;1.10;;
57720;SDS011;43562;43.064;0.160;2022-11-15T04:04:53;0.80;;;0.80;;
57720;SDS011;43562;43.064;0.160;2022-11-15T04:07:19;0.73;;;0.73;;
57720;SDS011;43562;43.064;0.160;2022-11-15T04:09:45;1.00;;;1.00;;
57720;SDS011;43562;43.064;0.160;2022-11-15T04:12:35;0.70;;;0.70;;
57720;SDS011;43562;43.064;0.160;2022-11-15T04:15:02;1.25;;;0.85;;
57720;SDS011;43562;43.064;0.160;2022-11-15T04:17:32;1.17;;;0.90;;
57720;SDS011;43562;43.064;0.160;2022-11-15T04:19:58;0.85;;;0.85;;
57720;SDS011;43562;43.064;0.160;2022-11-15T04:22:43;1.20;;;1.20;;
57720;SDS011;43562;43.064;0.160;2022-11-15T04:25:28;0.90;;;0.90;;
57720;SDS011;43562;43.064;0.160;2022-11-15T04:27:54;1.10;;;1.10;;
57720;SDS011;43562;43.064;0.160;2022-11-15T04:30:20;0.88;;;0.88;;
57720;SDS011;43562;43.064;0.160;2022-11-15T04:32:46;1.15;;;1.10;;
57720;SDS011;43562;43.064;0.160;2022-11-15T04:35:13;1.02;;;1.00;;
57720;SDS011;43562;43.064;0.160;2022-11-15T04:37:39;1.00;;;1.00;;
57720;SDS011;43562;43.064;0.160;2022-11-15T04:40:05;1.13;;;0.98;;
57720;SDS011;43562;43.064;0.160;2022-11-15T04:42:31;0.80;;;0.80;;
57720;SDS011;43562;43.064;0.160;2022-11-15T04:44:57;0.90;;;0.90;;
57720;SDS011;43562;43.064;0.160;2022-11-15T04:47:23;0.93;;;0.93;;
57720;SDS011;43562;43.064;0.160;2022-11-15T04:49:50;1.58;;;0.90;;
57720;SDS011;43562;43.064;0.160;2022-11-15T04:52:16;0.90;;;0.90;;
57720;SDS011;43562;43.064;0.160;2022-11-15T04:54:42;1.00;;;1.00;;
57720;SDS011;43562;43.064;0.160;2022-11-15T04:57:08;1.30;;;1.30;;
57720;SDS011;43562;43.064;0.160;2022-11-15T04:59:34;1.02;;;1.02;;
57720;SDS011;43562;43.064;0.160;2022-11-15T05:02:00;1.23;;;1.23;;
57720;SDS011;43562;43.064;0.160;2022-11-15T05:04:26;1.02;;;1.02;;
57720;SDS011;43562;43.064;0.160;2022-11-15T05:06:52;2.15;;;1.10;;
57720;SDS011;43562;43.064;0.160;2022-11-15T05:09:18;1.65;;;1.30;;
57720;SDS011;43562;43.064;0.160;2022-11-15T05:11:45;1.02;;;1.02;;
57720;SDS011;43562;43.064;0.160;2022-11-15T05:14:11;1.10;;;1.10;;
57720;SDS011;43562;43.064;0.160;2022-11-15T05:16:38;1.02;;;1.02;;
57720;SDS011;43562;43.064;0.160;2022-11-15T05:19:04;0.95;;;0.95;;
57720;SDS011;43562;43.064;0.160;2022-11-15T05:21:31;1.92;;;1.20;;
57720;SDS011;43562;43.064;0.160;2022-11-15T05:23:57;0.98;;;0.98;;
57720;SDS011;43562;43.064;0.160;2022-11-15T05:26:23;0.90;;;0.90;;
57720;SDS011;43562;43.064;0.160;2022-11-15T05:28:55;1.10;;;1.10;;
57720;SDS011;43562;43.064;0.160;2022-11-15T05:31:22;1.08;;;0.93;;
57720;SDS011;43562;43.064;0.160;2022-11-15T05:33:49;1.13;;;1.13;;
57720;SDS011;43562;43.064;0.160;2022-11-15T05:38:42;2.13;;;1.00;;
57720;SDS011;43562;43.064;0.160;2022-11-15T05:41:08;1.00;;;1.00;;
57720;SDS011;43562;43.064;0.160;2022-11-15T05:43:35;1.15;;;1.15;;
57720;SDS011;43562;43.064;0.160;2022-11-15T05:46:03;1.23;;;1.13;;
57720;SDS011;43562;43.064;0.160;2022-11-15T05:48:30;1.33;;;1.33;;
57720;SDS011;43562;43.064;0.160;2022-11-15T05:50:56;1.00;;;1.00;;
57720;SDS011;43562;43.064;0.160;2022-11-15T05:53:23;2.22;;;1.65;;
57720;SDS011;43562;43.064;0.160;2022-11-15T05:55:50;0.98;;;0.98;;
57720;SDS011;43562;43.064;0.160;2022-11-15T05:58:17;1.70;;;1.30;;
57720;SDS011;43562;43.064;0.160;2022-11-15T06:00:43;0.90;;;0.90;;
57720;SDS011;43562;43.064;0.160;2022-11-15T06:03:10;1.10;;;1.10;;
57720;SDS011;43562;43.064;0.160;2022-11-15T06:05:36;1.00;;;1.00;;
57720;SDS011;43562;43.064;0.160;2022-11-15T06:08:02;1.20;;;1.10;;
57720;SDS011;43562;43.064;0.160;2022-11-15T06:10:28;1.20;;;1.20;;
57720;SDS011;43562;43.064;0.160;2022-11-15T06:13:01;1.00;;;1.00;;
57720;SDS011;43562;43.064;0.160;2022-11-15T06:15:27;1.15;;;1.13;;
57720;SDS011;43562;43.064;0.160;2022-11-15T06:17:56;1.95;;;1.25;;
57720;SDS011;43562;43.064;0.160;2022-11-15T06:20:23;1.63;;;1.10;;
57720;SDS011;43562;43.064;0.160;2022-11-15T06:22:49;1.95;;;1.02;;
57720;SDS011;43562;43.064;0.160;2022-11-15T06:25:16;1.63;;;1.50;;
57720;SDS011;43562;43.064;0.160;2022-11-15T06:27:42;1.23;;;0.95;;
57720;SDS011;43562;43.064;0.160;2022-11-15T06:30:08;0.90;;;0.90;;
57720;SDS011;43562;43.064;0.160;2022-11-15T06:32:34;1.00;;;1.00;;
57720;SDS011;43562;43.064;0.160;2022-11-15T06:35:00;0.93;;;0.85;;
57720;SDS011;43562;43.064;0.160;2022-11-15T06:37:26;1.92;;;1.77;;
57720;SDS011;43562;43.064;0.160;2022-11-15T06:39:52;1.20;;;1.10;;
57720;SDS011;43562;43.064;0.160;2022-11-15T06:42:18;0.70;;;0.70;;
57720;SDS011;43562;43.064;0.160;2022-11-15T06:44:44;1.10;;;1.10;;
57720;SDS011;43562;43.064;0.160;2022-11-15T06:47:10;1.20;;;1.20;;
57720;SDS011;43562;43.064;0.160;2022-11-15T06:49:36;0.77;;;0.77;;
57720;SDS011;43562;43.064;0.160;2022-11-15T06:52:02;0.90;;;0.90;;
57720;SDS011;43562;43.064;0.160;2022-11-15T06:54:29;0.90;;;0.90;;
57720;SDS011;43562;43.064;0.160;2022-11-15T06:56:55;0.82;;;0.82;;
57720;SDS011;43562;43.064;0.160;2022-11-15T06:59:21;2.13;;;2.03;;
57720;SDS011;43562;43.064;0.160;2022-11-15T07:01:47;1.00;;;1.00;;
57720;SDS011;43562;43.064;0.160;2022-11-15T07:04:13;3.53;;;3.22;;
57720;SDS011;43562;43.064;0.160;2022-11-15T07:06:39;6.40;;;5.90;;
57720;SDS011;43562;43.064;0.160;2022-11-15T07:09:05;2.13;;;2.03;;
57720;SDS011;43562;43.064;0.160;2022-11-15T07:11:32;1.27;;;1.27;;
57720;SDS011;43562;43.064;0.160;2022-11-15T07:13:59;0.75;;;0.75;;
57720;SDS011;43562;43.064;0.160;2022-11-15T07:16:25;0.98;;;0.98;;
57720;SDS011;43562;43.064;0.160;2022-11-15T07:18:51;5.28;;;4.88;;
57720;SDS011;43562;43.064;0.160;2022-11-15T07:21:17;1.48;;;1.40;;
57720;SDS011;43562;43.064;0.160;2022-11-15T07:23:43;0.77;;;0.77;;
57720;SDS011;43562;43.064;0.160;2022-11-15T07:26:09;1.58;;;1.48;;
57720;SDS011;43562;43.064;0.160;2022-11-15T07:28:35;1.75;;;1.15;;
57720;SDS011;43562;43.064;0.160;2022-11-15T07:31:05;0.90;;;0.90;;
57720;SDS011;43562;43.064;0.160;2022-11-15T07:33:32;1.20;;;1.10;;
57720;SDS011;43562;43.064;0.160;2022-11-15T07:35:58;1.33;;;1.33;;
57720;SDS011;43562;43.064;0.160;2022-11-15T07:38:26;0.98;;;0.98;;
57720;SDS011;43562;43.064;0.160;2022-11-15T07:40:56;1.13;;;1.13;;
57720;SDS011;43562;43.064;0.160;2022-11-15T07:43:22;1.27;;;1.17;;
57720;SDS011;43562;43.064;0.160;2022-11-15T07:45:49;2.50;;;2.33;;
57720;SDS011;43562;43.064;0.160;2022-11-15T07:48:15;0.98;;;0.90;;
57720;SDS011;43562;43.064;0.160;2022-11-15T07:50:41;0.88;;;0.88;;
57720;SDS011;43562;43.064;0.160;2022-11-15T07:53:08;0.90;;;0.90;;
57720;SDS011;43562;43.064;0.160;2022-11-15T07:55:35;0.90;;;0.90;;
57720;SDS011;43562;43.064;0.160;2022-11-15T07:58:05;1.08;;;1.08;;
57720;SDS011;43562;43.064;0.160;2022-11-15T08:00:31;7.47;;;5.85;;
57720;SDS011;43562;43.064;0.160;2022-11-15T08:03:04;1.02;;;1.02;;
57720;SDS011;43562;43.064;0.160;2022-11-15T08:05:30;1.05;;;1.05;;
57720;SDS011;43562;43.064;0.160;2022-11-15T08:07:57;2.33;;;2.20;;
57720;SDS011;43562;43.064;0.160;2022-11-15T08:10:23;1.15;;;0.80;;
57720;SDS011;43562;43.064;0.160;2022-11-15T08:12:56;0.98;;;0.98;;
57720;SDS011;43562;43.064;0.160;2022-11-15T08:15:22;1.23;;;1.17;;
57720;SDS011;43562;43.064;0.160;2022-11-15T08:17:52;0.90;;;0.90;;
57720;SDS011;43562;43.064;0.160;2022-11-15T08:20:19;0.85;;;0.85;;
57720;SDS011;43562;43.064;0.160;2022-11-15T08:22:45;1.08;;;1.08;;
57720;SDS011;43562;43.064;0.160;2022-11-15T08:25:11;1.15;;;1.00;;
57720;SDS011;43562;43.064;0.160;2022-11-15T08:27:37;0.88;;;0.88;;
57720;SDS011;43562;43.064;0.160;2022-11-15T08:30:04;0.80;;;0.80;;
57720;SDS011;43562;43.064;0.160;2022-11-15T08:32:30;1.00;;;1.00;;
57720;SDS011;43562;43.064;0.160;2022-11-15T08:34:56;0.80;;;0.80;;
57720;SDS011;43562;43.064;0.160;2022-11-15T08:37:23;0.80;;;0.80;;
57720;SDS011;43562;43.064;0.160;2022-11-15T08:39:49;0.70;;;0.70;;
57720;SDS011;43562;43.064;0.160;2022-11-15T08:42:15;0.90;;;0.90;;
57720;SDS011;43562;43.064;0.160;2022-11-15T08:44:41;0.80;;;0.80;;
57720;SDS011;43562;43.064;0.160;2022-11-15T08:47:07;0.82;;;0.82;;
57720;SDS011;43562;43.064;0.160;2022-11-15T08:49:36;0.65;;;0.65;;
57720;SDS011;43562;43.064;0.160;2022-11-15T08:52:02;0.68;;;0.68;;
57720;SDS011;43562;43.064;0.160;2022-11-15T08:54:28;0.73;;;0.73;;
57720;SDS011;43562;43.064;0.160;2022-11-15T08:56:54;0.68;;;0.68;;
57720;SDS011;43562;43.064;0.160;2022-11-15T08:59:20;0.88;;;0.88;;
57720;SDS011;43562;43.064;0.160;2022-11-15T09:01:46;0.85;;;0.85;;
57720;SDS011;43562;43.064;0.160;2022-11-15T09:04:12;0.60;;;0.60;;
57720;SDS011;43562;43.064;0.160;2022-11-15T09:06:39;0.60;;;0.60;;
57720;SDS011;43562;43.064;0.160;2022-11-15T09:09:05;1.00;;;0.95;;
57720;SDS011;43562;43.064;0.160;2022-11-15T09:11:31;0.80;;;0.80;;
57720;SDS011;43562;43.064;0.160;2022-11-15T09:13:57;5.03;;;4.63;;
57720;SDS011;43562;43.064;0.160;2022-11-15T09:16:23;3.13;;;2.83;;
57720;SDS011;43562;43.064;0.160;2022-11-15T09:18:49;2.15;;;2.05;;
57720;SDS011;43562;43.064;0.160;2022-11-15T09:21:15;2.40;;;2.28;;
57720;SDS011;43562;43.064;0.160;2022-11-15T09:23:41;2.65;;;2.45;;
57720;SDS011;43562;43.064;0.160;2022-11-15T09:26:07;1.92;;;1.83;;
57720;SDS011;43562;43.064;0.160;2022-11-15T09:28:34;1.35;;;1.35;;
57720;SDS011;43562;43.064;0.160;2022-11-15T09:31:01;2.70;;;2.60;;
57720;SDS011;43562;43.064;0.160;2022-11-15T09:33:27;6.57;;;5.47;;
57720;SDS011;43562;43.064;0.160;2022-11-15T09:35:54;3.70;;;3.47;;
57720;SDS011;43562;43.064;0.160;2022-11-15T09:38:20;4.68;;;4.18;;
57720;SDS011;43562;43.064;0.160;2022-11-15T09:40:57;6.80;;;5.38;;
57720;SDS011;43562;43.064;0.160;2022-11-15T09:43:53;2.03;;;1.92;;
57720;SDS011;43562;43.064;0.160;2022-11-15T09:48:55;2.35;;;2.25;;
57720;SDS011;43562;43.064;0.160;2022-11-15T09:51:32;2.72;;;2.63;;
57720;SDS011;43562;43.064;0.160;2022-11-15T09:54:01;5.38;;;4.75;;
57720;SDS011;43562;43.064;0.160;2022-11-15T09:56:32;3.80;;;3.63;;
57720;SDS011;43562;43.064;0.160;2022-11-15T10:03:58;9.15;;;4.47;;
57720;SDS011;43562;43.064;0.160;2022-11-15T10:06:25;11.23;;;5.00;;
57720;SDS011;43562;43.064;0.160;2022-11-15T10:11:22;10.32;;;5.10;;
57720;SDS011;43562;43.064;0.160;2022-11-15T10:13:49;3.67;;;2.35;;
57720;SDS011;43562;43.064;0.160;2022-11-15T10:16:36;1.17;;;1.17;;
57720;SDS011;43562;43.064;0.160;2022-11-15T10:24:25;12.68;;;7.22;;
57720;SDS011;43562;43.064;0.160;2022-11-15T10:26:55;6.53;;;3.83;;
57720;SDS011;43562;43.064;0.160;2022-11-15T10:29:22;4.40;;;2.95;;
57720;SDS011;43562;43.064;0.160;2022-11-15T10:31:49;1.30;;;1.30;;
57720;SDS011;43562;43.064;0.160;2022-11-15T10:34:18;2.38;;;1.65;;
57720;SDS011;43562;43.064;0.160;2022-11-15T10:36:58;1.00;;;1.00;;
57720;SDS011;43562;43.064;0.160;2022-11-15T10:39:25;1.20;;;1.10;;
57720;SDS011;43562;43.064;0.160;2022-11-15T10:41:52;1.60;;;1.50;;
57720;SDS011;43562;43.064;0.160;2022-11-15T10:49:20;21.92;;;9.75;;
57720;SDS011;43562;43.064;0.160;2022-11-15T10:54:13;1.35;;;1.25;;
57720;SDS011;43562;43.064;0.160;2022-11-15T10:56:42;1.20;;;1.10;;
57720;SDS011;43562;43.064;0.160;2022-11-15T10:59:14;0.90;;;0.90;;
57720;SDS011;43562;43.064;0.160;2022-11-15T11:01:47;5.22;;;3.40;;
57720;SDS011;43562;43.064;0.160;2022-11-15T11:04:13;8.07;;;4.47;;
57720;SDS011;43562;43.064;0.160;2022-11-15T11:06:50;1.30;;;1.20;;
57720;SDS011;43562;43.064;0.160;2022-11-15T11:09:25;1.70;;;1.35;;
57720;SDS011;43562;43.064;0.160;2022-11-15T11:11:53;1.10;;;1.10;;
57720;SDS011;43562;43.064;0.160;2022-11-15T11:14:20;5.63;;;3.25;;
57720;SDS011;43562;43.064;0.160;2022-11-15T11:16:50;1.10;;;1.00;;
57720;SDS011;43562;43.064;0.160;2022-11-15T11:22:22;1.63;;;1.20;;
57720;SDS011;43562;43.064;0.160;2022-11-15T11:24:56;2.22;;;1.33;;
57720;SDS011;43562;43.064;0.160;2022-11-15T11:30:02;0.60;;;0.60;;
57720;SDS011;43562;43.064;0.160;2022-11-15T11:35:00;13.35;;;6.32;;
57720;SDS011;43562;43.064;0.160;2022-11-15T11:37:32;0.70;;;0.70;;
57720;SDS011;43562;43.064;0.160;2022-11-15T11:40:34;1.13;;;1.13;;
57720;SDS011;43562;43.064;0.160;2022-11-15T11:42:55;2.05;;;1.80;;
57720;SDS011;43562;43.064;0.160;2022-11-15T11:48:12;1.40;;;1.40;;
57720;SDS011;43562;43.064;0.160;2022-11-15T11:50:39;5.70;;;3.17;;
57720;SDS011;43562;43.064;0.160;2022-11-15T11:53:25;8.45;;;3.67;;
57720;SDS011;43562;43.064;0.160;2022-11-15T11:55:53;1.77;;;1.40;;
57720;SDS011;43562;43.064;0.160;2022-11-15T11:58:33;1.10;;;1.10;;
57720;SDS011;43562;43.064;0.160;2022-11-15T12:01:17;2.22;;;1.30;;
57720;SDS011;43562;43.064;0.160;2022-11-15T12:03:46;1.33;;;1.33;;
57720;SDS011;43562;43.064;0.160;2022-11-15T12:06:24;1.50;;;1.25;;
57720;SDS011;43562;43.064;0.160;2022-11-15T12:11:29;1.33;;;1.33;;
57720;SDS011;43562;43.064;0.160;2022-11-15T12:13:59;1.25;;;1.25;;
57720;SDS011;43562;43.064;0.160;2022-11-15T12:16:30;1.02;;;1.02;;
57720;SDS011;43562;43.064;0.160;2022-11-15T12:18:59;1.10;;;1.10;;
57720;SDS011;43562;43.064;0.160;2022-11-15T12:23:59;1.50;;;1.48;;
57720;SDS011;43562;43.064;0.160;2022-11-15T12:26:31;1.20;;;1.20;;
57720;SDS011;43562;43.064;0.160;2022-11-15T12:29:03;1.02;;;0.90;;
57720;SDS011;43562;43.064;0.160;2022-11-15T12:34:00;0.70;;;0.70;;
57720;SDS011;43562;43.064;0.160;2022-11-15T12:36:35;0.77;;;0.77;;
57720;SDS011;43562;43.064;0.160;2022-11-15T12:39:03;1.23;;;1.23;;
57720;SDS011;43562;43.064;0.160;2022-11-15T12:41:30;1.20;;;1.20;;
57720;SDS011;43562;43.064;0.160;2022-11-15T12:43:56;1.25;;;1.25;;
57720;SDS011;43562;43.064;0.160;2022-11-15T12:49:07;0.73;;;0.73;;
57720;SDS011;43562;43.064;0.160;2022-11-15T12:57:50;2.80;;;0.90;;
57720;SDS011;43562;43.064;0.160;2022-11-15T13:00:04;0.75;;;0.70;;
57720;SDS011;43562;43.064;0.160;2022-11-15T13:02:33;0.70;;;0.70;;
57720;SDS011;43562;43.064;0.160;2022-11-15T13:17:48;3.88;;;2.08;;
57720;SDS011;43562;43.064;0.160;2022-11-15T13:22:50;0.60;;;0.60;;
57720;SDS011;43562;43.064;0.160;2022-11-15T13:27:49;1.38;;;1.08;;
57720;SDS011;43562;43.064;0.160;2022-11-15T13:30:21;0.85;;;0.80;;
57720;SDS011;43562;43.064;0.160;2022-11-15T13:32:48;0.50;;;0.50;;
57720;SDS011;43562;43.064;0.160;2022-11-15T13:35:18;1.00;;;0.70;;
57720;SDS011;43562;43.064;0.160;2022-11-15T13:37:45;0.70;;;0.70;;
57720;SDS011;43562;43.064;0.160;2022-11-15T13:40:22;0.70;;;0.70;;
57720;SDS011;43562;43.064;0.160;2022-11-15T13:42:49;0.95;;;0.95;;
57720;SDS011;43562;43.064;0.160;2022-11-15T13:45:16;0.70;;;0.70;;
57720;SDS011;43562;43.064;0.160;2022-11-15T13:47:42;1.67;;;0.80;;
57720;SDS011;43562;43.064;0.160;2022-11-15T13:50:12;0.80;;;0.80;;
57720;SDS011;43562;43.064;0.160;2022-11-15T13:52:39;5.10;;;1.20;;
57720;SDS011;43562;43.064;0.160;2022-11-15T13:55:18;3.42;;;0.80;;
57720;SDS011;43562;43.064;0.160;2022-11-15T13:57:46;0.80;;;0.80;;
57720;SDS011;43562;43.064;0.160;2022-11-15T14:00:46;0.93;;;0.93;;
57720;SDS011;43562;43.064;0.160;2022-11-15T14:05:39;0.82;;;0.82;;
57720;SDS011;43562;43.064;0.160;2022-11-15T14:08:23;0.90;;;0.90;;
57720;SDS011;43562;43.064;0.160;2022-11-15T14:11:05;1.73;;;0.77;;
57720;SDS011;43562;43.064;0.160;2022-11-15T14:13:31;0.77;;;0.77;;
57720;SDS011;43562;43.064;0.160;2022-11-15T14:16:13;0.80;;;0.80;;
57720;SDS011;43562;43.064;0.160;2022-11-15T14:18:41;0.70;;;0.70;;
57720;SDS011;43562;43.064;0.160;2022-11-15T14:21:08;0.88;;;0.80;;
57720;SDS011;43562;43.064;0.160;2022-11-15T14:23:34;0.88;;;0.88;;
57720;SDS011;43562;43.064;0.160;2022-11-15T14:26:00;0.80;;;0.80;;
57720;SDS011;43562;43.064;0.160;2022-11-15T14:30:54;0.80;;;0.80;;
57720;SDS011;43562;43.064;0.160;2022-11-15T14:33:25;0.90;;;0.90;;
57720;SDS011;43562;43.064;0.160;2022-11-15T14:35:56;0.70;;;0.70;;
57720;SDS011;43562;43.064;0.160;2022-11-15T14:38:23;0.73;;;0.73;;
57720;SDS011;43562;43.064;0.160;2022-11-15T14:40:49;0.70;;;0.70;;
57720;SDS011;43562;43.064;0.160;2022-11-15T14:43:16;0.80;;;0.80;;
57720;SDS011;43562;43.064;0.160;2022-11-15T14:45:42;0.73;;;0.73;;
57720;SDS011;43562;43.064;0.160;2022-11-15T14:48:08;1.30;;;0.80;;
57720;SDS011;43562;43.064;0.160;2022-11-15T14:50:35;0.82;;;0.82;;
57720;SDS011;43562;43.064;0.160;2022-11-15T14:53:01;0.57;;;0.57;;
57720;SDS011;43562;43.064;0.160;2022-11-15T14:55:28;1.00;;;0.95;;
57720;SDS011;43562;43.064;0.160;2022-11-15T14:57:57;0.80;;;0.80;;
57720;SDS011;43562;43.064;0.160;2022-11-15T15:00:23;1.20;;;1.08;;
57720;SDS011;43562;43.064;0.160;2022-11-15T15:02:50;9.07;;;1.30;;
57720;SDS011;43562;43.064;0.160;2022-11-15T15:05:18;2.95;;;1.20;;
57720;SDS011;43562;43.064;0.160;2022-11-15T15:07:44;1.08;;;0.98;;
57720;SDS011;43562;43.064;0.160;2022-11-15T15:10:11;4.22;;;1.23;;
57720;SDS011;43562;43.064;0.160;2022-11-15T15:12:37;1.00;;;1.00;;
57720;SDS011;43562;43.064;0.160;2022-11-15T15:15:04;2.78;;;1.50;;
57720;SDS011;43562;43.064;0.160;2022-11-15T15:17:31;3.53;;;1.40;;
57720;SDS011;43562;43.064;0.160;2022-11-15T15:19:57;2.65;;;1.38;;
57720;SDS011;43562;43.064;0.160;2022-11-15T15:22:23;1.75;;;1.65;;
57720;SDS011;43562;43.064;0.160;2022-11-15T15:24:52;2.13;;;1.42;;
57720;SDS011;43562;43.064;0.160;2022-11-15T15:27:18;1.52;;;1.42;;
57720;SDS011;43562;43.064;0.160;2022-11-15T15:29:44;2.45;;;1.40;;
57720;SDS011;43562;43.064;0.160;2022-11-15T15:32:10;6.35;;;1.40;;
57720;SDS011;43562;43.064;0.160;2022-11-15T15:34:38;3.05;;;1.30;;
57720;SDS011;43562;43.064;0.160;2022-11-15T15:39:33;7.10;;;1.63;;
57720;SDS011;43562;43.064;0.160;2022-11-15T15:41:59;1.52;;;1.42;;
57720;SDS011;43562;43.064;0.160;2022-11-15T15:44:25;2.58;;;1.10;;
57720;SDS011;43562;43.064;0.160;2022-11-15T15:46:51;1.30;;;1.20;;
57720;SDS011;43562;43.064;0.160;2022-11-15T15:49:18;1.13;;;1.13;;
57720;SDS011;43562;43.064;0.160;2022-11-15T15:51:44;1.50;;;1.40;;
57720;SDS011;43562;43.064;0.160;2022-11-15T15:54:10;1.88;;;1.50;;
57720;SDS011;43562;43.064;0.160;2022-11-15T15:56:36;4.10;;;1.50;;
57720;SDS011;43562;43.064;0.160;2022-11-15T15:59:02;1.48;;;1.38;;
57720;SDS011;43562;43.064;0.160;2022-11-15T16:01:28;1.60;;;1.50;;
57720;SDS011;43562;43.064;0.160;2022-11-15T16:03:54;1.20;;;1.20;;
57720;SDS011;43562;43.064;0.160;2022-11-15T16:08:58;8.52;;;2.85;;
57720;SDS011;43562;43.064;0.160;2022-11-15T16:11:24;7.60;;;3.45;;
57720;SDS011;43562;43.064;0.160;2022-11-15T16:13:50;3.47;;;1.50;;
57720;SDS011;43562;43.064;0.160;2022-11-15T16:16:17;1.25;;;1.17;;
57720;SDS011;43562;43.064;0.160;2022-11-15T16:18:43;2.08;;;1.63;;
57720;SDS011;43562;43.064;0.160;2022-11-15T16:21:09;3.38;;;1.20;;
57720;SDS011;43562;43.064;0.160;2022-11-15T16:23:35;1.00;;;1.00;;
57720;SDS011;43562;43.064;0.160;2022-11-15T16:26:01;0.90;;;0.90;;
57720;SDS011;43562;43.064;0.160;2022-11-15T16:28:29;1.15;;;1.02;;
57720;SDS011;43562;43.064;0.160;2022-11-15T16:30:59;1.30;;;1.20;;
57720;SDS011;43562;43.064;0.160;2022-11-15T16:33:26;1.20;;;1.05;;
57720;SDS011;43562;43.064;0.160;2022-11-15T16:35:52;1.05;;;0.82;;
57720;SDS011;43562;43.064;0.160;2022-11-15T16:38:18;1.55;;;1.38;;
57720;SDS011;43562;43.064;0.160;2022-11-15T16:40:45;1.70;;;1.13;;
57720;SDS011;43562;43.064;0.160;2022-11-15T16:43:11;0.77;;;0.70;;
57720;SDS011;43562;43.064;0.160;2022-11-15T16:45:37;1.30;;;0.90;;
57720;SDS011;43562;43.064;0.160;2022-11-15T16:48:03;0.98;;;0.98;;
57720;SDS011;43562;43.064;0.160;2022-11-15T16:50:31;1.10;;;1.00;;